Time;durP1;ratioP1;P1;durP2;ratioP2;P2;SDS_P1;SDS_P2;PMS_P1;PMS_P2;Temp;Humidity;BMP_temperature;BMP_pressure;BME280_temperature;BME280_humidity;BME280_pressure;Samples;Min_cycle;Max_cycle;Signal;HPM_P1;HPM_P2
2023/08/09 00:00:13;;;;;;;7.57;6.97;;;22.10;99.90;;;;;;5230110;28;20119;-73
2023/08/09 00:02:44;;;;;;;7.78;7.00;;;22.10;99.90;;;;;;5247623;28;20021;-72
2023/08/09 00:05:15;;;;;;;7.65;6.78;;;22.00;99.90;;;;;;5247156;28;20078;-73
2023/08/09 00:07:46;;;;;;;7.93;7.38;;;22.00;99.90;;;;;;5245743;28;20529;-73
2023/08/09 00:10:18;;;;;;;7.75;7.25;;;22.00;99.90;;;;;;5226458;28;20036;-73
2023/08/09 00:12:50;;;;;;;6.70;6.22;;;22.00;99.90;;;;;;5208611;28;20031;-73
2023/08/09 00:15:20;;;;;;;6.95;6.45;;;22.10;99.90;;;;;;5226154;28;20045;-73
2023/08/09 00:17:51;;;;;;;6.93;6.43;;;22.10;99.90;;;;;;5226924;28;20021;-73
2023/08/09 00:20:22;;;;;;;6.53;6.13;;;21.90;99.90;;;;;;5226747;28;20024;-72
2023/08/09 00:22:53;;;;;;;7.03;6.43;;;21.90;99.90;;;;;;5238006;28;20432;-73
2023/08/09 00:25:24;;;;;;;7.00;6.20;;;22.00;99.90;;;;;;5247957;28;20099;-73
2023/08/09 00:27:55;;;;;;;6.90;6.40;;;22.10;99.90;;;;;;5247907;28;20422;-73
2023/08/09 00:30:26;;;;;;;6.15;5.75;;;22.10;99.90;;;;;;5247927;28;20074;-73
2023/08/09 00:32:57;;;;;;;7.15;6.47;;;22.00;99.90;;;;;;5248174;28;20432;-72
2023/08/09 00:35:28;;;;;;;7.18;6.57;;;22.00;99.90;;;;;;5233678;28;20112;-73
2023/08/09 00:38:00;;;;;;;6.65;5.60;;;22.00;99.90;;;;;;5227157;28;20108;-73
2023/08/09 00:40:31;;;;;;;7.60;6.43;;;22.00;99.90;;;;;;5227126;28;20445;-73
2023/08/09 00:43:02;;;;;;;7.00;6.50;;;21.90;99.90;;;;;;5227046;28;20084;-73
2023/08/09 00:45:33;;;;;;;6.88;6.40;;;21.90;99.90;;;;;;5236982;28;20476;-73
2023/08/09 00:48:05;;;;;;;6.82;6.32;;;21.90;99.90;;;;;;5247973;28;20021;-73
2023/08/09 00:50:36;;;;;;;6.47;6.00;;;21.90;99.90;;;;;;5247597;28;20020;-73
2023/08/09 00:53:07;;;;;;;6.43;5.93;;;21.90;99.90;;;;;;5247614;28;20719;-73
2023/08/09 00:55:39;;;;;;;6.38;5.80;;;21.90;99.90;;;;;;5246905;28;20032;-72
2023/08/09 00:58:10;;;;;;;6.32;5.78;;;21.90;99.90;;;;;;5245501;28;20391;-74
2023/08/09 01:00:41;;;;;;;6.68;6.07;;;21.90;99.90;;;;;;5246282;28;20100;-73
2023/08/09 01:03:13;;;;;;;8.60;6.05;;;22.00;99.90;;;;;;5244705;28;20480;-73
2023/08/09 01:05:50;;;;;;;6.85;6.35;;;22.00;99.90;;;;;;5244776;28;20512;-73
2023/08/09 01:08:39;;;;;;;16.15;11.43;;;21.80;99.90;;;;;;5245056;28;20024;-73
2023/08/09 01:11:24;;;;;;;7.60;7.10;;;21.70;99.90;;;;;;5235259;28;20032;-73
2023/08/09 01:13:55;;;;;;;6.38;5.88;;;21.80;99.90;;;;;;5226383;28;20029;-73
2023/08/09 01:16:27;;;;;;;6.47;6.00;;;21.80;99.90;;;;;;5226373;28;20045;-73
2023/08/09 01:18:59;;;;;;;7.35;6.75;;;21.70;99.90;;;;;;5226377;28;20017;-73
2023/08/09 01:21:36;;;;;;;6.88;6.43;;;21.70;99.90;;;;;;5225301;28;20135;-73
2023/08/09 01:24:08;;;;;;;7.60;7.05;;;21.80;99.90;;;;;;5226459;28;20014;-73
2023/08/09 01:26:41;;;;;;;7.45;6.32;;;21.70;99.90;;;;;;5226342;28;20036;-73
2023/08/09 01:29:12;;;;;;;6.50;5.90;;;21.80;99.90;;;;;;5226377;28;20090;-73
2023/08/09 01:31:43;;;;;;;8.00;6.70;;;21.90;99.90;;;;;;5228217;28;20412;-74
2023/08/09 01:34:15;;;;;;;7.25;6.68;;;21.80;99.90;;;;;;5230621;28;20475;-73
2023/08/09 01:36:50;;;;;;;94.10;16.50;;;21.80;99.90;;;;;;5230773;28;20039;-73
2023/08/09 01:39:25;;;;;;;50.33;6.68;;;21.80;99.90;;;;;;5229191;28;20108;-73
2023/08/09 01:41:57;;;;;;;7.15;6.22;;;21.80;99.90;;;;;;5228886;28;20065;-73
2023/08/09 01:44:30;;;;;;;21.42;5.60;;;21.80;99.90;;;;;;5230407;28;20029;-73
2023/08/09 01:47:03;;;;;;;12.45;5.10;;;21.70;99.90;;;;;;5229998;28;20049;-74
2023/08/09 01:49:34;;;;;;;5.40;4.95;;;21.70;99.90;;;;;;5230190;28;20444;-73
2023/08/09 01:52:05;;;;;;;5.20;4.88;;;21.70;99.90;;;;;;5229913;28;20024;-73
2023/08/09 01:54:36;;;;;;;8.77;5.07;;;21.70;99.90;;;;;;5229314;28;20107;-73
2023/08/09 01:57:07;;;;;;;5.03;4.63;;;21.70;99.90;;;;;;5229193;28;20127;-74
2023/08/09 01:59:38;;;;;;;238.15;56.60;;;21.70;99.90;;;;;;5229148;28;20474;-73
2023/08/09 02:02:09;;;;;;;5.35;4.95;;;21.70;99.90;;;;;;5229081;28;20021;-73
2023/08/09 02:04:40;;;;;;;4.93;4.53;;;21.70;99.90;;;;;;5229011;28;20017;-73
2023/08/09 02:07:11;;;;;;;11.32;6.07;;;21.70;99.90;;;;;;5228874;28;20017;-73
2023/08/09 02:09:42;;;;;;;7.72;7.13;;;21.70;99.90;;;;;;5229665;28;20447;-73
2023/08/09 02:12:13;;;;;;;5.65;4.80;;;21.70;99.90;;;;;;5228389;28;20025;-75
2023/08/09 02:14:44;;;;;;;5.80;5.10;;;21.70;99.90;;;;;;5228506;28;20472;-73
2023/08/09 02:17:15;;;;;;;9.52;8.80;;;21.60;99.90;;;;;;5228465;28;20033;-73
2023/08/09 02:19:46;;;;;;;5.10;4.70;;;21.60;99.90;;;;;;5228623;28;20112;-73
2023/08/09 02:22:17;;;;;;;5.70;4.45;;;21.70;99.90;;;;;;5229950;28;20105;-73
2023/08/09 02:24:48;;;;;;;5.93;4.10;;;21.70;99.90;;;;;;5229643;28;20516;-73
2023/08/09 02:27:19;;;;;;;4.47;4.07;;;21.60;99.90;;;;;;5229664;28;20108;-72
2023/08/09 02:29:50;;;;;;;4.68;3.78;;;21.60;99.90;;;;;;5229621;28;20029;-73
2023/08/09 02:32:21;;;;;;;3.83;3.53;;;21.70;99.90;;;;;;5228395;28;20127;-73
2023/08/09 02:34:52;;;;;;;4.40;3.90;;;21.70;99.90;;;;;;5229318;28;20475;-73
2023/08/09 02:37:22;;;;;;;3.97;3.67;;;21.60;99.90;;;;;;5228198;28;20036;-73
2023/08/09 02:39:54;;;;;;;4.05;3.75;;;21.60;99.90;;;;;;5229320;28;20036;-73
2023/08/09 02:42:25;;;;;;;3.90;3.55;;;21.70;99.90;;;;;;5229025;28;20067;-73
2023/08/09 02:44:55;;;;;;;5.13;3.95;;;21.60;99.90;;;;;;5228714;28;20059;-72
2023/08/09 02:47:26;;;;;;;3.67;3.38;;;21.60;99.90;;;;;;5227136;28;20045;-73
2023/08/09 02:49:57;;;;;;;5.00;3.58;;;21.60;99.90;;;;;;5228457;28;20036;-73
2023/08/09 02:52:28;;;;;;;5.85;5.25;;;21.60;99.90;;;;;;5227957;28;20024;-73
2023/08/09 02:54:59;;;;;;;3.97;3.10;;;21.70;99.90;;;;;;5227905;28;20083;-73
2023/08/09 02:57:30;;;;;;;4.32;3.55;;;21.60;99.90;;;;;;5227765;28;20021;-73
2023/08/09 03:00:01;;;;;;;4.40;3.83;;;21.60;99.90;;;;;;5227758;28;20021;-73
2023/08/09 03:02:31;;;;;;;4.57;3.83;;;21.70;99.90;;;;;;5227428;28;20120;-73
2023/08/09 03:05:03;;;;;;;6.50;3.80;;;21.60;99.90;;;;;;5228279;28;20107;-73
2023/08/09 03:07:35;;;;;;;4.05;3.53;;;21.70;99.90;;;;;;5229142;28;20031;-74
2023/08/09 03:10:07;;;;;;;4.57;3.28;;;21.60;99.90;;;;;;5227707;28;20017;-73
2023/08/09 03:12:38;;;;;;;3.72;3.35;;;21.60;99.90;;;;;;5227533;28;20025;-73
2023/08/09 03:15:10;;;;;;;6.05;3.70;;;21.50;99.90;;;;;;5229959;28;20524;-73
2023/08/09 03:17:41;;;;;;;3.63;3.33;;;21.60;99.90;;;;;;5249463;28;20591;-73
2023/08/09 03:20:16;;;;;;;3.67;3.38;;;21.50;99.90;;;;;;5249264;28;20031;-73
2023/08/09 03:22:48;;;;;;;3.53;2.90;;;21.60;99.90;;;;;;5249272;28;20380;-73
2023/08/09 03:25:19;;;;;;;3.92;2.88;;;21.70;99.90;;;;;;5249211;28;20369;-73
2023/08/09 03:27:50;;;;;;;5.82;2.90;;;21.70;99.90;;;;;;5249352;28;20046;-72
2023/08/09 03:30:21;;;;;;;3.15;2.88;;;21.60;99.90;;;;;;5249124;28;20099;-73
2023/08/09 03:32:52;;;;;;;4.15;2.80;;;21.60;99.90;;;;;;5249251;28;20028;-73
2023/08/09 03:35:22;;;;;;;3.22;3.03;;;21.70;99.90;;;;;;5249046;28;20488;-73
2023/08/09 03:37:53;;;;;;;3.85;2.85;;;21.60;99.90;;;;;;5247610;28;20036;-73
2023/08/09 03:40:24;;;;;;;3.15;2.65;;;21.70;99.90;;;;;;5247631;28;20020;-73
2023/08/09 03:42:55;;;;;;;4.95;2.85;;;21.60;99.90;;;;;;5247998;28;20142;-73
2023/08/09 03:45:26;;;;;;;4.68;2.78;;;21.70;99.90;;;;;;5247871;28;20021;-74
2023/08/09 03:47:57;;;;;;;3.75;3.10;;;21.70;99.90;;;;;;5247447;28;20040;-74
2023/08/09 03:50:28;;;;;;;4.22;2.75;;;21.70;99.90;;;;;;5243986;28;20372;-75
2023/08/09 03:52:59;;;;;;;2.90;2.70;;;21.70;99.90;;;;;;5231994;28;20021;-74
2023/08/09 03:55:30;;;;;;;3.90;3.47;;;21.90;99.90;;;;;;5239685;28;20070;-75
2023/08/09 03:58:01;;;;;;;3.72;3.42;;;21.90;99.90;;;;;;5246188;28;20016;-74
2023/08/09 04:00:32;;;;;;;4.53;4.13;;;21.90;99.90;;;;;;5246862;28;20032;-74
2023/08/09 04:03:03;;;;;;;4.35;3.95;;;21.90;99.90;;;;;;5247791;28;20028;-73
2023/08/09 04:05:35;;;;;;;5.40;4.03;;;21.80;99.90;;;;;;5247746;28;20021;-73
2023/08/09 04:08:07;;;;;;;4.50;4.10;;;22.00;99.90;;;;;;5248157;28;20020;-74
2023/08/09 04:10:38;;;;;;;6.80;4.45;;;21.90;99.90;;;;;;5236749;28;20033;-73
2023/08/09 04:13:08;;;;;;;4.47;4.03;;;21.90;99.90;;;;;;5242185;28;20025;-73
2023/08/09 04:15:40;;;;;;;5.10;4.80;;;22.00;99.90;;;;;;5242412;28;20043;-77
2023/08/09 04:18:10;;;;;;;6.45;5.93;;;22.10;99.90;;;;;;5235056;28;20020;-72
2023/08/09 04:20:42;;;;;;;6.22;5.72;;;22.10;99.90;;;;;;5227359;28;20472;-74
2023/08/09 04:23:12;;;;;;;7.22;6.53;;;22.20;99.90;;;;;;5241048;28;20036;-73
2023/08/09 04:25:46;;;;;;;6.88;6.40;;;22.40;99.90;;;;;;5241839;28;20029;-75
2023/08/09 04:28:16;;;;;;;5.80;5.28;;;22.50;99.90;;;;;;5232223;28;20066;-75
2023/08/09 04:30:47;;;;;;;7.47;5.13;;;22.40;99.90;;;;;;5232581;28;20032;-72
2023/08/09 04:33:18;;;;;;;4.88;4.38;;;22.50;99.90;;;;;;5231690;28;20150;-73
2023/08/09 04:36:08;;;;;;;4.78;4.28;;;22.70;99.90;;;;;;5246536;28;20482;-73
2023/08/09 04:38:39;;;;;;;;;;;22.50;99.90;;;;;;5247228;28;20021;-74
2023/08/09 04:44:18;;;;;;;5.10;4.60;;;22.60;99.90;;;;;;5246741;28;20036;-73
2023/08/09 04:47:07;;;;;;;5.50;5.10;;;22.50;99.90;;;;;;5681635;23;20086;-74
2023/08/09 04:49:38;;;;;;;5.22;4.80;;;22.50;99.90;;;;;;5266357;28;20020;-74
2023/08/09 04:52:09;;;;;;;5.32;4.30;;;22.60;99.90;;;;;;5271549;28;20093;-74
2023/08/09 04:54:40;;;;;;;6.57;4.43;;;22.60;99.90;;;;;;5272848;28;20021;-75
2023/08/09 04:57:12;;;;;;;7.38;3.92;;;22.70;99.90;;;;;;5267887;28;20044;-74
2023/08/09 04:59:43;;;;;;;4.72;4.15;;;22.50;99.90;;;;;;5268127;28;20085;-74
2023/08/09 05:02:13;;;;;;;6.00;4.00;;;22.60;99.90;;;;;;5268271;28;20418;-75
2023/08/09 05:04:44;;;;;;;4.90;3.70;;;22.60;99.90;;;;;;5267952;28;20035;-73
2023/08/09 05:07:15;;;;;;;4.57;4.18;;;22.80;99.90;;;;;;5267919;28;20028;-73
2023/08/09 05:09:46;;;;;;;7.88;4.35;;;23.00;99.90;;;;;;5273409;28;20106;-74
2023/08/09 05:12:17;;;;;;;5.72;4.30;;;22.90;99.90;;;;;;5289201;28;20129;-74
2023/08/09 05:14:48;;;;;;;5.03;3.90;;;23.10;99.90;;;;;;5288934;28;20032;-74
2023/08/09 05:17:19;;;;;;;4.30;3.90;;;23.10;99.90;;;;;;5290682;28;20028;-75
2023/08/09 05:19:50;;;;;;;4.22;3.67;;;23.10;99.90;;;;;;5290050;28;20034;-76
2023/08/09 05:22:22;;;;;;;7.05;3.15;;;23.10;99.90;;;;;;5290116;28;20498;-76
2023/08/09 05:24:53;;;;;;;3.80;3.40;;;23.10;99.90;;;;;;5289648;28;20046;-76
2023/08/09 05:27:26;;;;;;;7.60;3.10;;;23.30;99.90;;;;;;5289702;28;20048;-78
2023/08/09 05:29:57;;;;;;;3.50;3.20;;;23.40;99.90;;;;;;5289632;28;20028;-77
2023/08/09 05:32:28;;;;;;;5.53;2.50;;;23.60;99.90;;;;;;5288619;28;20520;-75
2023/08/09 05:34:59;;;;;;;5.38;2.95;;;23.70;99.90;;;;;;5287289;28;20080;-75
2023/08/09 05:37:30;;;;;;;5.55;2.72;;;23.90;99.90;;;;;;5288174;28;20035;-74
2023/08/09 05:40:01;;;;;;;3.00;2.15;;;23.80;99.90;;;;;;5289275;28;20631;-74
2023/08/09 05:42:32;;;;;;;3.63;2.35;;;23.80;99.90;;;;;;5289224;28;20075;-75
2023/08/09 05:45:03;;;;;;;4.95;2.15;;;24.00;99.90;;;;;;5288128;28;20031;-75
2023/08/09 05:47:35;;;;;;;7.15;2.35;;;24.20;99.90;;;;;;5276830;28;20422;-75
2023/08/09 05:50:06;;;;;;;2.38;2.22;;;24.00;99.90;;;;;;5267883;28;20078;-75
2023/08/09 05:52:37;;;;;;;3.25;2.50;;;24.30;99.90;;;;;;5267873;28;20016;-75
2023/08/09 05:55:09;;;;;;;5.05;2.67;;;24.20;99.90;;;;;;5267031;28;20047;-75
2023/08/09 05:57:40;;;;;;;5.03;2.42;;;24.40;99.90;;;;;;5267054;28;20026;-75
2023/08/09 06:00:15;;;;;;;5.75;2.55;;;24.20;99.90;;;;;;5267110;28;20459;-75
2023/08/09 06:02:47;;;;;;;3.28;2.63;;;24.00;99.90;;;;;;5266981;28;20040;-75
2023/08/09 06:05:22;;;;;;;4.05;2.35;;;24.20;99.90;;;;;;5266938;28;20035;-75
2023/08/09 06:07:54;;;;;;;5.03;2.92;;;24.00;99.90;;;;;;5266432;28;20024;-76
2023/08/09 06:10:25;;;;;;;4.82;2.65;;;24.30;99.90;;;;;;5267865;28;20086;-75
2023/08/09 06:12:56;;;;;;;3.78;2.90;;;24.40;99.90;;;;;;5268378;28;20444;-81
2023/08/09 06:15:27;;;;;;;3.47;2.50;;;24.40;99.90;;;;;;5268848;28;20051;-76
2023/08/09 06:17:58;;;;;;;3.80;2.70;;;24.50;99.90;;;;;;5267692;28;20032;-81
2023/08/09 06:20:29;;;;;;;6.38;2.47;;;24.70;99.90;;;;;;5269908;28;20024;-75
2023/08/09 06:23:00;;;;;;;4.00;2.80;;;24.60;99.90;;;;;;5270062;28;20024;-82
2023/08/09 06:25:31;;;;;;;4.55;2.53;;;24.80;99.90;;;;;;5269528;28;20020;-83
2023/08/09 06:28:02;;;;;;;3.20;2.90;;;24.70;99.90;;;;;;5270876;28;20028;-75
2023/08/09 06:30:33;;;;;;;3.50;2.70;;;24.80;99.90;;;;;;5270206;28;20074;-75
2023/08/09 06:33:05;;;;;;;5.53;3.58;;;24.80;99.90;;;;;;5270187;28;20036;-74
2023/08/09 06:35:35;;;;;;;4.65;4.20;;;24.90;99.90;;;;;;5269877;28;20085;-74
2023/08/09 06:38:06;;;;;;;11.05;4.88;;;24.90;99.90;;;;;;5271849;28;20036;-75
2023/08/09 06:40:39;;;;;;;6.97;4.55;;;25.10;99.90;;;;;;5271917;28;20024;-76
2023/08/09 06:43:09;;;;;;;6.53;5.20;;;25.30;99.90;;;;;;5271784;28;20024;-78
2023/08/09 06:45:40;;;;;;;8.98;5.45;;;25.30;99.90;;;;;;5271582;28;20028;-75
2023/08/09 06:48:11;;;;;;;6.85;6.20;;;25.50;99.90;;;;;;5272069;28;20048;-76
2023/08/09 06:50:42;;;;;;;6.38;5.28;;;25.50;99.90;;;;;;5271501;28;20074;-77
2023/08/09 06:53:13;;;;;;;5.72;5.05;;;25.40;99.90;;;;;;5271600;28;20451;-75
2023/08/09 06:55:44;;;;;;;6.60;4.68;;;25.10;99.90;;;;;;5271767;28;20511;-76
2023/08/09 06:58:15;;;;;;;7.68;4.85;;;24.90;99.90;;;;;;5271477;28;20112;-75
2023/08/09 07:00:46;;;;;;;10.05;5.82;;;25.00;99.90;;;;;;5271478;28;20020;-75
2023/08/09 07:03:17;;;;;;;5.75;5.22;;;25.10;99.90;;;;;;5271557;28;20030;-75
2023/08/09 07:05:48;;;;;;;8.23;5.53;;;25.10;99.90;;;;;;5271895;28;20028;-75
2023/08/09 07:08:21;;;;;;;6.22;5.50;;;25.10;99.90;;;;;;5271556;28;20028;-75
2023/08/09 07:10:52;;;;;;;6.13;5.55;;;25.00;99.90;;;;;;5271608;28;20024;-76
2023/08/09 07:13:25;;;;;;;7.05;6.55;;;25.10;99.90;;;;;;5271481;28;20028;-83
2023/08/09 07:15:56;;;;;;;6.82;6.28;;;25.00;99.90;;;;;;5271153;28;20539;-83
2023/08/09 07:18:27;;;;;;;9.68;8.20;;;25.00;99.90;;;;;;5271160;28;20487;-79
2023/08/09 07:20:58;;;;;;;10.82;7.10;;;25.20;99.90;;;;;;5269365;28;20032;-75
2023/08/09 07:23:29;;;;;;;9.05;7.68;;;25.10;99.90;;;;;;5271009;28;20024;-76
2023/08/09 07:26:00;;;;;;;9.82;8.18;;;25.10;99.90;;;;;;5270291;28;20028;-75
2023/08/09 07:28:31;;;;;;;8.70;8.05;;;25.00;99.90;;;;;;5270361;28;20016;-76
2023/08/09 07:31:02;;;;;;;10.10;7.85;;;25.00;99.90;;;;;;5270193;28;20788;-75
2023/08/09 07:33:32;;;;;;;8.25;7.47;;;25.20;99.90;;;;;;5270319;28;20340;-77
2023/08/09 07:36:04;;;;;;;8.15;7.07;;;25.10;99.90;;;;;;5270366;28;20028;-75
2023/08/09 07:38:36;;;;;;;8.65;8.05;;;25.30;99.90;;;;;;5270338;28;20099;-85
2023/08/09 07:41:07;;;;;;;8.15;7.40;;;25.80;99.90;;;;;;5270683;28;20094;-78
2023/08/09 07:43:39;;;;;;;5.72;4.05;;;26.00;99.90;;;;;;5270422;28;20024;-75
2023/08/09 07:46:10;;;;;;;7.43;4.30;;;25.80;99.90;;;;;;5270087;28;20048;-83
2023/08/09 07:48:41;;;;;;;5.20;4.43;;;26.10;99.90;;;;;;5269966;28;20533;-76
2023/08/09 07:51:12;;;;;;;5.38;4.88;;;26.00;99.90;;;;;;5269953;28;20028;-76
2023/08/09 07:53:44;;;;;;;5.05;4.55;;;26.00;99.90;;;;;;5270251;28;20024;-81
2023/08/09 07:56:15;;;;;;;5.70;4.88;;;26.10;99.90;;;;;;5270290;28;20479;-75
2023/08/09 07:58:46;;;;;;;6.97;5.00;;;25.90;99.90;;;;;;5270214;28;20467;-75
2023/08/09 08:01:17;;;;;;;7.13;4.63;;;26.10;99.90;;;;;;5270331;28;20026;-75
2023/08/09 08:03:48;;;;;;;7.43;4.75;;;26.20;99.90;;;;;;5269643;28;20024;-77
2023/08/09 08:06:20;;;;;;;7.15;4.65;;;26.10;99.90;;;;;;5269875;28;20031;-76
2023/08/09 08:08:51;;;;;;;4.30;3.45;;;25.90;99.90;;;;;;5269588;28;20066;-75
2023/08/09 08:11:22;;;;;;;7.28;3.50;;;26.00;99.90;;;;;;5269500;28;20065;-76
2023/08/09 08:13:53;;;;;;;20.23;4.07;;;26.20;99.90;;;;;;5269501;28;20028;-77
2023/08/09 08:16:24;;;;;;;18.50;4.20;;;26.10;99.90;;;;;;5267874;28;20032;-76
2023/08/09 08:18:54;;;;;;;7.13;4.07;;;26.10;99.90;;;;;;5269854;28;20040;-76
2023/08/09 08:21:25;;;;;;;5.75;4.40;;;26.20;99.90;;;;;;5269474;28;20024;-77
2023/08/09 08:23:56;;;;;;;5.15;4.25;;;26.50;99.90;;;;;;5269977;28;20440;-76
2023/08/09 08:26:27;;;;;;;6.57;4.25;;;26.50;99.90;;;;;;5270169;28;20476;-79
2023/08/09 08:28:58;;;;;;;5.22;4.30;;;26.40;99.90;;;;;;5269859;28;20027;-76
2023/08/09 08:31:29;;;;;;;4.00;3.70;;;26.40;99.90;;;;;;5270053;28;20477;-75
2023/08/09 08:34:00;;;;;;;4.53;4.03;;;26.30;99.90;;;;;;5269613;28;20063;-82
2023/08/09 08:36:31;;;;;;;6.88;4.28;;;26.50;99.90;;;;;;5269548;28;20048;-85
2023/08/09 08:39:05;;;;;;;4.40;3.90;;;26.50;99.90;;;;;;5269754;28;20028;-76
2023/08/09 08:41:36;;;;;;;5.10;4.13;;;26.30;99.90;;;;;;5268374;28;20724;-74
2023/08/09 08:44:11;;;;;;;6.13;4.47;;;26.10;99.90;;;;;;5268618;28;20036;-75
2023/08/09 08:46:42;;;;;;;5.03;4.43;;;26.20;99.90;;;;;;5268348;28;20044;-73
2023/08/09 08:49:23;;;;;;;5.95;4.25;;;26.20;99.90;;;;;;5268531;28;20020;-74
2023/08/09 08:51:55;;;;;;;4.53;3.70;;;26.00;99.90;;;;;;5268689;28;20039;-75
2023/08/09 08:54:26;;;;;;;4.20;3.80;;;25.90;99.90;;;;;;5268417;28;20054;-74
2023/08/09 08:56:57;;;;;;;5.97;3.33;;;25.90;99.90;;;;;;5268161;28;20624;-74
2023/08/09 08:59:29;;;;;;;6.10;3.50;;;25.60;99.90;;;;;;5267945;28;20030;-74
2023/08/09 09:02:02;;;;;;;6.18;3.40;;;25.60;99.90;;;;;;5267992;28;20020;-74
2023/08/09 09:04:33;;;;;;;8.93;4.25;;;25.70;99.90;;;;;;5267056;28;20055;-77
2023/08/09 09:07:05;;;;;;;6.07;3.83;;;25.70;99.90;;;;;;5267413;28;20441;-74
2023/08/09 09:09:44;;;;;;;5.85;3.88;;;25.50;99.90;;;;;;5267203;28;20023;-81
2023/08/09 09:12:15;;;;;;;6.05;3.50;;;25.50;99.90;;;;;;5267247;28;20529;-76
2023/08/09 09:14:49;;;;;;;5.35;3.28;;;25.50;99.90;;;;;;5264501;28;20017;-75
2023/08/09 09:17:21;;;;;;;4.68;3.63;;;25.70;99.90;;;;;;5245158;28;20045;-74
2023/08/09 09:19:52;;;;;;;5.32;3.75;;;25.50;99.90;;;;;;5247387;28;20027;-75
2023/08/09 09:22:30;;;;;;;12.02;3.53;;;25.50;99.90;;;;;;5247234;28;20119;-74
2023/08/09 09:25:02;;;;;;;5.75;3.63;;;25.30;99.90;;;;;;5247168;28;20055;-74
2023/08/09 09:27:33;;;;;;;11.32;4.45;;;25.40;99.90;;;;;;5247193;28;20582;-79
2023/08/09 09:30:12;;;;;;;3.35;3.05;;;25.50;99.90;;;;;;5247202;28;20048;-74
2023/08/09 09:32:52;;;;;;;3.57;3.20;;;25.50;99.90;;;;;;5265405;28;20365;-79
2023/08/09 09:35:31;;;;;;;11.10;3.92;;;25.50;99.90;;;;;;5266839;28;20293;-79
2023/08/09 09:38:05;;;;;;;4.63;4.20;;;25.60;99.90;;;;;;5268147;28;20031;-74
2023/08/09 09:40:37;;;;;;;6.10;3.58;;;25.50;99.90;;;;;;5268876;28;20028;-78
2023/08/09 09:43:10;;;;;;;4.72;3.50;;;25.50;99.90;;;;;;5269123;28;20020;-76
2023/08/09 09:45:43;;;;;;;3.45;3.13;;;25.40;99.90;;;;;;5268515;28;20369;-76
2023/08/09 09:48:17;;;;;;;5.70;3.55;;;25.50;99.90;;;;;;5268846;28;20040;-76
2023/08/09 09:50:49;;;;;;;3.75;3.40;;;25.60;99.90;;;;;;5268460;28;20205;-75
2023/08/09 09:53:20;;;;;;;3.97;3.53;;;25.40;99.90;;;;;;5271484;28;20021;-75
2023/08/09 09:55:51;;;;;;;5.63;3.25;;;25.60;99.90;;;;;;5270899;28;20024;-76
2023/08/09 09:58:22;;;;;;;5.63;3.70;;;25.70;99.90;;;;;;5272617;28;20024;-76
2023/08/09 10:00:56;;;;;;;3.55;3.15;;;25.80;99.90;;;;;;5272597;28;20022;-76
2023/08/09 10:03:31;;;;;;;5.88;4.03;;;25.70;99.90;;;;;;5272237;28;20046;-76
2023/08/09 10:06:02;;;;;;;8.02;3.63;;;25.70;99.90;;;;;;5272333;28;20024;-75
2023/08/09 10:08:34;;;;;;;12.05;4.80;;;25.90;99.90;;;;;;5271970;28;20035;-76
2023/08/09 10:11:08;;;;;;;5.32;4.78;;;26.10;99.90;;;;;;5271984;28;20025;-76
2023/08/09 10:13:41;;;;;;;9.75;4.90;;;26.20;99.90;;;;;;5272510;28;20066;-76
2023/08/09 10:16:13;;;;;;;4.95;4.55;;;26.20;99.90;;;;;;5272097;28;20043;-79
2023/08/09 10:18:49;;;;;;;4.53;4.22;;;26.00;99.90;;;;;;5272598;28;20418;-76
2023/08/09 10:21:21;;;;;;;5.28;4.78;;;25.90;99.90;;;;;;5272377;28;20020;-75
2023/08/09 10:23:57;;;;;;;5.40;4.63;;;25.80;99.90;;;;;;5272419;28;20409;-76
2023/08/09 10:26:29;;;;;;;6.00;4.65;;;25.90;99.90;;;;;;5272275;28;20056;-75
2023/08/09 10:29:09;;;;;;;5.70;5.05;;;25.90;99.90;;;;;;5270799;28;20024;-75
2023/08/09 10:31:56;;;;;;;5.28;4.90;;;25.90;99.90;;;;;;5272224;28;20027;-76
2023/08/09 10:34:40;;;;;;;5.15;4.65;;;26.00;99.90;;;;;;5272249;28;20079;-77
2023/08/09 10:37:11;;;;;;;5.60;4.57;;;26.00;99.90;;;;;;5272000;28;20460;-83
2023/08/09 10:39:47;;;;;;;5.53;4.00;;;26.00;99.90;;;;;;5272254;28;20107;-75
2023/08/09 10:42:18;;;;;;;6.63;4.63;;;26.00;99.90;;;;;;5272175;28;20028;-75
2023/08/09 10:44:49;;;;;;;7.35;4.57;;;25.90;99.90;;;;;;5270801;28;20032;-76
2023/08/09 10:47:22;;;;;;;5.90;4.78;;;26.00;99.90;;;;;;5271738;28;20056;-75
2023/08/09 10:49:56;;;;;;;6.60;5.28;;;25.80;99.90;;;;;;5271764;28;20024;-79
2023/08/09 10:52:39;;;;;;;4.88;4.45;;;25.70;99.90;;;;;;5271654;28;20020;-75
2023/08/09 10:55:26;;;;;;;9.07;4.63;;;25.70;99.90;;;;;;5271232;28;20034;-77
2023/08/09 10:57:58;;;;;;;6.38;4.63;;;25.80;99.90;;;;;;5271082;28;20043;-76
2023/08/09 11:00:41;;;;;;;5.28;4.78;;;25.70;99.90;;;;;;5271042;28;20115;-74
2023/08/09 11:03:12;;;;;;;5.05;4.35;;;25.60;99.90;;;;;;5271193;28;20758;-79
2023/08/09 11:05:44;;;;;;;5.55;4.43;;;25.50;99.90;;;;;;5270438;28;20074;-78
2023/08/09 11:08:18;;;;;;;5.00;3.80;;;25.70;99.90;;;;;;5270822;28;20036;-77
2023/08/09 11:10:50;;;;;;;5.72;3.97;;;25.70;99.90;;;;;;5271562;28;20426;-80
2023/08/09 11:13:21;;;;;;;4.72;4.25;;;25.80;99.90;;;;;;5271477;28;20503;-75
2023/08/09 11:15:53;;;;;;;5.00;3.78;;;25.70;99.90;;;;;;5271298;28;20087;-75
2023/08/09 11:18:24;;;;;;;6.00;3.97;;;25.60;99.90;;;;;;5271037;28;20036;-75
2023/08/09 11:20:56;;;;;;;4.40;3.88;;;25.70;99.90;;;;;;5269967;28;20418;-83
2023/08/09 11:23:27;;;;;;;5.22;3.90;;;25.50;99.90;;;;;;5271178;28;20023;-83
2023/08/09 11:26:00;;;;;;;3.83;3.47;;;25.50;99.90;;;;;;5271191;28;20028;-76
2023/08/09 11:28:31;;;;;;;6.82;3.75;;;25.60;99.90;;;;;;5271080;28;20451;-75
2023/08/09 11:31:02;;;;;;;4.63;3.88;;;25.60;99.90;;;;;;5271149;28;20070;-76
2023/08/09 11:33:33;;;;;;;3.53;3.22;;;25.50;99.90;;;;;;5270940;28;20016;-76
2023/08/09 11:36:04;;;;;;;8.13;3.42;;;25.50;99.90;;;;;;5270717;28;20060;-75
2023/08/09 11:38:36;;;;;;;4.13;3.72;;;25.40;99.90;;;;;;5270879;28;20020;-76
2023/08/09 11:41:06;;;;;;;4.20;3.80;;;25.60;99.90;;;;;;5270994;28;20028;-75
2023/08/09 11:43:38;;;;;;;6.18;3.78;;;25.60;99.90;;;;;;5270870;28;20024;-76
2023/08/09 11:46:10;;;;;;;8.73;3.45;;;25.70;99.90;;;;;;5270163;28;20048;-81
2023/08/09 11:48:44;;;;;;;7.47;4.30;;;25.80;99.90;;;;;;5279211;28;20490;-75
2023/08/09 11:51:20;;;;;;;4.03;3.10;;;25.70;99.90;;;;;;5290397;28;20057;-79
2023/08/09 11:53:51;;;;;;;5.55;3.10;;;25.70;99.90;;;;;;5290080;28;20543;-76
2023/08/09 11:56:23;;;;;;;3.88;3.47;;;25.60;99.90;;;;;;5290073;28;20035;-74
2023/08/09 11:58:55;;;;;;;4.68;3.17;;;25.60;99.90;;;;;;5290040;28;20643;-79
2023/08/09 12:01:35;;;;;;;3.83;3.30;;;25.50;99.90;;;;;;5290049;27;20027;-75
2023/08/09 12:04:13;;;;;;;5.32;3.22;;;25.50;99.90;;;;;;5289780;28;20028;-75
2023/08/09 12:06:55;;;;;;;8.52;3.50;;;25.60;99.90;;;;;;5290575;28;20031;-76
2023/08/09 12:09:40;;;;;;;5.10;3.78;;;25.70;99.90;;;;;;5290455;28;20047;-75
2023/08/09 12:12:33;;;;;;;5.38;3.85;;;25.50;99.90;;;;;;5290708;28;20023;-75
2023/08/09 12:15:05;;;;;;;6.45;3.83;;;25.70;99.90;;;;;;5275528;28;20472;-75
2023/08/09 12:17:36;;;;;;;4.50;3.63;;;25.60;99.90;;;;;;5268512;28;20510;-79
2023/08/09 12:20:09;;;;;;;5.00;2.83;;;25.60;99.90;;;;;;5269289;28;20082;-75
2023/08/09 12:22:41;;;;;;;3.97;3.50;;;25.40;99.90;;;;;;5269368;28;20028;-75
2023/08/09 12:25:12;;;;;;;5.40;3.38;;;25.40;99.90;;;;;;5269149;28;20058;-76
2023/08/09 12:27:43;;;;;;;4.45;3.30;;;25.40;99.90;;;;;;5269226;28;20031;-76
2023/08/09 12:30:14;;;;;;;6.40;3.85;;;25.40;99.90;;;;;;5269193;28;20024;-75
2023/08/09 12:32:45;;;;;;;6.20;3.40;;;25.40;99.90;;;;;;5269082;28;20031;-82
2023/08/09 12:35:16;;;;;;;4.50;3.40;;;25.40;99.90;;;;;;5269273;28;20114;-76
2023/08/09 12:37:47;;;;;;;5.88;3.63;;;25.30;99.90;;;;;;5269006;28;20028;-75
2023/08/09 12:40:18;;;;;;;4.72;3.50;;;25.30;99.90;;;;;;5269258;28;20495;-76
2023/08/09 12:42:51;;;;;;;6.85;3.97;;;25.30;99.90;;;;;;5268694;28;20448;-78
2023/08/09 12:45:21;;;;;;;5.20;3.40;;;25.20;99.90;;;;;;5267977;28;20036;-77
2023/08/09 12:47:53;;;;;;;5.22;4.18;;;25.10;99.90;;;;;;5267979;28;20587;-76
2023/08/09 12:50:24;;;;;;;5.20;4.50;;;25.20;99.90;;;;;;5268161;28;20039;-76
2023/08/09 12:52:55;;;;;;;4.70;4.20;;;25.10;99.90;;;;;;5268492;28;20016;-75
2023/08/09 12:55:26;;;;;;;4.45;4.05;;;25.20;99.90;;;;;;5268408;28;20083;-75
2023/08/09 12:57:57;;;;;;;4.53;4.10;;;25.30;99.90;;;;;;5268269;28;20028;-75
2023/08/09 13:00:28;;;;;;;5.45;4.68;;;25.20;99.90;;;;;;5268069;28;20047;-75
2023/08/09 13:02:59;;;;;;;7.57;5.35;;;25.20;99.90;;;;;;5268763;28;20157;-75
2023/08/09 13:05:30;;;;;;;5.60;5.03;;;25.20;99.90;;;;;;5268687;28;20032;-75
2023/08/09 13:08:02;;;;;;;5.32;4.82;;;24.90;99.90;;;;;;5268660;28;20024;-75
2023/08/09 13:10:33;;;;;;;5.65;5.15;;;24.90;99.90;;;;;;5268725;28;20070;-75
2023/08/09 13:13:04;;;;;;;5.40;5.00;;;25.00;99.90;;;;;;5266745;28;20044;-75